createdAt,value
2023-05-18T00:00:41.634Z,854.78
2023-05-18T00:01:41.644Z,854.79
2023-05-18T00:02:41.714Z,854.77
2023-05-18T00:03:41.705Z,854.71
2023-05-18T00:04:41.656Z,854.73
2023-05-18T00:05:41.576Z,854.71
2023-05-18T00:06:41.573Z,854.70
2023-05-18T00:07:41.564Z,854.71
2023-05-18T00:08:41.589Z,854.67
2023-05-18T00:09:41.537Z,854.67
2023-05-18T00:10:41.523Z,854.62
2023-05-18T00:11:41.517Z,854.68
2023-05-18T00:12:41.514Z,854.68
2023-05-18T00:13:41.497Z,854.64
2023-05-18T00:14:41.507Z,854.62
2023-05-18T00:15:41.475Z,854.67
2023-05-18T00:16:41.553Z,854.64
2023-05-18T00:17:41.497Z,854.58
2023-05-18T00:18:41.481Z,854.62
2023-05-18T00:19:41.441Z,854.61
2023-05-18T00:20:41.428Z,854.58
2023-05-18T00:21:41.407Z,854.59
2023-05-18T00:22:41.396Z,854.56
2023-05-18T00:23:41.386Z,854.59
2023-05-18T00:24:41.420Z,854.56
2023-05-18T00:25:41.358Z,854.51
2023-05-18T00:26:41.373Z,854.54
2023-05-18T00:27:41.356Z,854.54
2023-05-18T00:28:41.331Z,854.44
2023-05-18T00:29:41.318Z,854.47
2023-05-18T00:30:41.332Z,854.45
2023-05-18T00:31:41.335Z,854.42
2023-05-18T00:32:41.375Z,854.45
2023-05-18T00:33:41.300Z,854.45
2023-05-18T00:34:41.288Z,854.46
2023-05-18T00:35:41.255Z,854.47
2023-05-18T00:36:41.256Z,854.45
2023-05-18T00:37:41.232Z,854.47
2023-05-18T00:38:41.255Z,854.43
2023-05-18T00:39:41.211Z,854.45
2023-05-18T00:40:41.204Z,854.44
2023-05-18T00:41:41.195Z,854.42
2023-05-18T00:42:41.252Z,854.43
2023-05-18T00:43:41.184Z,854.45
2023-05-18T00:44:41.241Z,854.42
2023-05-18T00:45:41.185Z,854.43
2023-05-18T00:46:41.184Z,854.36
2023-05-18T00:47:41.203Z,854.37
2023-05-18T00:48:41.181Z,854.34
2023-05-18T00:49:41.157Z,854.32
2023-05-18T00:50:41.153Z,854.33
2023-05-18T00:51:41.149Z,854.35
2023-05-18T00:52:41.089Z,854.32
2023-05-18T00:53:43.417Z,854.32
2023-05-18T00:54:41.071Z,854.32
2023-05-18T00:55:41.045Z,854.30
2023-05-18T00:56:41.056Z,854.29
2023-05-18T00:57:41.022Z,854.28
2023-05-18T00:58:41.030Z,854.30
2023-05-18T00:59:41.002Z,854.32
2023-05-18T01:00:40.997Z,854.27
2023-05-18T01:01:41.059Z,854.28
2023-05-18T01:02:41.072Z,854.26
2023-05-18T01:03:41.023Z,854.27
2023-05-18T01:04:40.948Z,854.32
2023-05-18T01:05:40.963Z,854.29
2023-05-18T01:06:40.935Z,854.27
2023-05-18T01:07:40.924Z,854.27
2023-05-18T01:08:40.927Z,854.30
2023-05-18T01:09:40.920Z,854.27
2023-05-18T01:10:40.888Z,854.25
2023-05-18T01:11:40.932Z,854.29
2023-05-18T01:12:40.874Z,854.27
2023-05-18T01:13:40.848Z,854.31
2023-05-18T01:14:40.866Z,854.28
2023-05-18T01:15:40.827Z,854.31
2023-05-18T01:16:40.847Z,854.31
2023-05-18T01:17:40.844Z,854.36
2023-05-18T01:18:40.841Z,854.35
2023-05-18T01:19:40.790Z,854.33
2023-05-18T01:20:40.814Z,854.33
2023-05-18T01:21:40.780Z,854.33
2023-05-18T01:22:40.776Z,854.33
2023-05-18T01:23:40.744Z,854.34
2023-05-18T01:24:40.736Z,854.32
2023-05-18T01:25:40.725Z,854.30
2023-05-18T01:26:40.747Z,854.29
2023-05-18T01:27:40.698Z,854.33
2023-05-18T01:28:40.706Z,854.33
2023-05-18T01:29:40.680Z,854.32
2023-05-18T01:30:40.686Z,854.30
2023-05-18T01:31:40.657Z,854.29
2023-05-18T01:32:40.749Z,854.26
2023-05-18T01:33:40.641Z,854.31
2023-05-18T01:34:40.627Z,854.30
2023-05-18T01:35:40.614Z,854.29
2023-05-18T01:36:40.604Z,854.25
2023-05-18T01:37:40.626Z,854.25
2023-05-18T01:38:43.125Z,854.24
2023-05-18T01:39:40.573Z,854.21
2023-05-18T01:40:40.574Z,854.21
2023-05-18T01:41:40.553Z,854.25
2023-05-18T01:42:40.550Z,854.22
2023-05-18T01:43:40.527Z,854.20
2023-05-18T01:44:40.584Z,854.20
2023-05-18T01:45:40.506Z,854.14
2023-05-18T01:46:40.561Z,854.18
2023-05-18T01:47:40.566Z,854.16
2023-05-18T01:48:40.476Z,854.14
2023-05-18T01:49:40.475Z,854.11
2023-05-18T01:50:40.492Z,854.08
2023-05-18T01:51:40.445Z,854.07
2023-05-18T01:52:40.442Z,854.08
2023-05-18T01:53:40.450Z,854.08
2023-05-18T01:54:40.410Z,854.08
2023-05-18T01:55:40.465Z,854.00
2023-05-18T01:56:40.441Z,854.00
2023-05-18T01:57:40.384Z,854.00
2023-05-18T01:58:40.372Z,853.98
2023-05-18T01:59:40.359Z,853.97
2023-05-18T02:00:40.347Z,854.01
2023-05-18T02:01:40.349Z,853.97
2023-05-18T02:02:40.497Z,853.89
2023-05-18T02:03:40.389Z,853.92
2023-05-18T02:04:40.304Z,853.92
2023-05-18T02:05:40.290Z,853.89
2023-05-18T02:06:40.290Z,853.84
2023-05-18T02:07:40.283Z,853.86
2023-05-18T02:08:40.297Z,853.85
2023-05-18T02:09:40.270Z,853.87
2023-05-18T02:10:40.241Z,853.84
2023-05-18T02:11:40.226Z,853.86
2023-05-18T02:12:40.229Z,853.81
2023-05-18T02:13:40.219Z,853.87
2023-05-18T02:14:40.216Z,853.88
2023-05-18T02:15:40.180Z,853.85
2023-05-18T02:16:40.271Z,853.88
2023-05-18T02:17:40.323Z,853.81
2023-05-18T02:18:40.184Z,853.81
2023-05-18T02:19:40.134Z,853.86
2023-05-18T02:20:40.150Z,853.79
2023-05-18T02:21:40.117Z,853.84
2023-05-18T02:22:40.133Z,853.82
2023-05-18T02:23:40.093Z,853.79
2023-05-18T02:24:40.094Z,853.85
2023-05-18T02:25:40.114Z,853.83
2023-05-18T02:26:40.120Z,853.83
2023-05-18T02:27:40.053Z,853.86
2023-05-18T02:28:40.095Z,853.85
2023-05-18T02:29:40.034Z,853.84
2023-05-18T02:30:40.018Z,853.86
2023-05-18T02:31:40.015Z,853.83
2023-05-18T02:32:40.053Z,853.81
2023-05-18T02:33:40.250Z,853.82
2023-05-18T02:34:39.988Z,853.85
2023-05-18T02:35:39.966Z,853.81
2023-05-18T02:36:40.180Z,853.78
2023-05-18T02:37:40.274Z,853.80
2023-05-18T02:38:39.966Z,853.78
2023-05-18T02:39:39.919Z,853.81
2023-05-18T02:40:39.922Z,853.79
2023-05-18T02:41:39.985Z,853.85
2023-05-18T02:42:39.895Z,853.81
2023-05-18T02:43:39.876Z,853.77
2023-05-18T02:44:39.899Z,853.76
2023-05-18T02:45:39.896Z,853.74
2023-05-18T02:46:39.858Z,853.81
2023-05-18T02:47:39.877Z,853.76
2023-05-18T02:48:39.837Z,853.78
2023-05-18T02:49:39.818Z,853.76
2023-05-18T02:50:39.852Z,853.77
2023-05-18T02:51:39.796Z,853.79
2023-05-18T02:52:39.793Z,853.76
2023-05-18T02:53:39.817Z,853.81
2023-05-18T02:54:39.777Z,853.76
2023-05-18T02:55:39.760Z,853.78
2023-05-18T02:56:39.762Z,853.78
2023-05-18T02:57:39.756Z,853.76
2023-05-18T02:58:39.722Z,853.69
2023-05-18T02:59:39.724Z,853.73
2023-05-18T03:00:39.702Z,853.74
2023-05-18T03:01:39.736Z,853.72
2023-05-18T03:02:39.794Z,853.71
2023-05-18T03:03:39.793Z,853.71
2023-05-18T03:04:39.663Z,853.75
2023-05-18T03:05:39.646Z,853.75
2023-05-18T03:06:39.637Z,853.72
2023-05-18T03:07:39.623Z,853.73
2023-05-18T03:08:39.646Z,853.68
2023-05-18T03:09:39.607Z,853.69
2023-05-18T03:10:39.621Z,853.67
2023-05-18T03:11:39.581Z,853.71
2023-05-18T03:12:39.572Z,853.73
2023-05-18T03:13:39.582Z,853.68
2023-05-18T03:14:39.601Z,853.71
2023-05-18T03:15:39.559Z,853.70
2023-05-18T03:16:39.609Z,853.68
2023-05-18T03:17:39.558Z,853.67
2023-05-18T03:18:39.547Z,853.68
2023-05-18T03:19:39.502Z,853.67
2023-05-18T03:20:39.530Z,853.65
2023-05-18T03:21:39.483Z,853.65
2023-05-18T03:22:39.471Z,853.66
2023-05-18T03:23:39.452Z,853.69
2023-05-18T03:24:39.452Z,853.65
2023-05-18T03:25:39.438Z,853.63
2023-05-18T03:26:39.470Z,853.66
2023-05-18T03:27:39.408Z,853.65
2023-05-18T03:28:39.405Z,853.64
2023-05-18T03:29:39.421Z,853.63
2023-05-18T03:30:39.440Z,853.65
2023-05-18T03:31:39.438Z,853.61
2023-05-18T03:32:39.470Z,853.65
2023-05-18T03:33:39.345Z,853.57
2023-05-18T03:34:39.349Z,853.56
2023-05-18T03:35:39.325Z,853.51
2023-05-18T03:36:39.340Z,853.49
2023-05-18T03:37:39.308Z,853.51
2023-05-18T03:38:39.436Z,853.49
2023-05-18T03:39:39.280Z,853.51
2023-05-18T03:40:39.272Z,853.49
2023-05-18T03:41:39.266Z,853.49
2023-05-18T03:42:39.270Z,853.47
2023-05-18T03:43:39.238Z,853.47
2023-05-18T03:44:39.336Z,853.43
2023-05-18T03:45:39.250Z,853.47
2023-05-18T03:46:39.262Z,853.46
2023-05-18T03:47:39.251Z,853.44
2023-05-18T03:48:39.199Z,853.47
2023-05-18T03:49:39.177Z,853.46
2023-05-18T03:50:39.213Z,853.46
2023-05-18T03:51:39.162Z,853.44
2023-05-18T03:52:39.155Z,853.44
2023-05-18T03:53:39.131Z,853.44
2023-05-18T03:54:39.133Z,853.43
2023-05-18T03:55:39.115Z,853.46
2023-05-18T03:56:39.181Z,853.39
2023-05-18T03:57:39.097Z,853.46
2023-05-18T03:58:39.083Z,853.39
2023-05-18T03:59:39.070Z,853.44
2023-05-18T04:00:39.078Z,853.43
2023-05-18T04:01:39.165Z,853.39
2023-05-18T04:02:39.210Z,853.44
2023-05-18T04:03:39.083Z,853.41
2023-05-18T04:04:39.013Z,853.41
2023-05-18T04:05:39.006Z,853.42
2023-05-18T04:06:38.994Z,853.42
2023-05-18T04:07:38.988Z,853.45
2023-05-18T04:08:39.019Z,853.46
2023-05-18T04:09:38.961Z,853.45
2023-05-18T04:10:38.952Z,853.37
2023-05-18T04:11:38.941Z,853.42
2023-05-18T04:12:38.959Z,853.42
2023-05-18T04:13:38.942Z,853.41
2023-05-18T04:14:38.950Z,853.40
2023-05-18T04:15:38.911Z,853.47
2023-05-18T04:16:38.973Z,853.44
2023-05-18T04:17:38.953Z,853.47
2023-05-18T04:18:38.878Z,853.52
2023-05-18T04:19:38.899Z,853.46
2023-05-18T04:20:38.895Z,853.54
2023-05-18T04:21:38.842Z,853.51
2023-05-18T04:22:38.833Z,853.47
2023-05-18T04:23:38.849Z,853.54
2023-05-18T04:24:38.811Z,853.52
2023-05-18T04:25:38.795Z,853.58
2023-05-18T04:26:38.799Z,853.56
2023-05-18T04:27:38.770Z,853.49
2023-05-18T04:28:38.773Z,853.53
2023-05-18T04:29:38.747Z,853.54
2023-05-18T04:30:38.731Z,853.52
2023-05-18T04:31:38.760Z,853.51
2023-05-18T04:32:38.768Z,853.41
2023-05-18T04:33:38.800Z,853.48
2023-05-18T04:34:38.692Z,853.46
2023-05-18T04:35:38.725Z,853.45
2023-05-18T04:36:38.669Z,853.42
2023-05-18T04:37:38.675Z,853.43
2023-05-18T04:38:38.684Z,853.42
2023-05-18T04:39:38.654Z,853.36
2023-05-18T04:40:38.638Z,853.40
2023-05-18T04:41:38.617Z,853.42
2023-05-18T04:42:38.608Z,853.43
2023-05-18T04:43:38.607Z,853.44
2023-05-18T04:44:38.614Z,853.46
2023-05-18T04:45:38.641Z,853.44
2023-05-18T04:46:38.563Z,853.45
2023-05-18T04:47:38.574Z,853.42
2023-05-18T04:48:38.551Z,853.37
2023-05-18T04:49:38.679Z,853.34
2023-05-18T04:50:38.550Z,853.36
2023-05-18T04:51:38.528Z,853.37
2023-05-18T04:52:38.506Z,853.40
2023-05-18T04:53:38.494Z,853.44
2023-05-18T04:54:38.475Z,853.45
2023-05-18T04:55:38.486Z,853.38
2023-05-18T04:56:38.474Z,853.44
2023-05-18T04:57:38.449Z,853.36
2023-05-18T04:58:38.436Z,853.38
2023-05-18T04:59:38.437Z,853.40
2023-05-18T05:00:38.412Z,853.37
2023-05-18T05:01:38.430Z,853.38
2023-05-18T05:02:38.467Z,853.41
2023-05-18T05:03:38.591Z,853.38
2023-05-18T05:04:38.382Z,853.39
2023-05-18T05:05:38.379Z,853.40
2023-05-18T05:06:38.344Z,853.40
2023-05-18T05:07:38.345Z,853.38
2023-05-18T05:08:38.340Z,853.32
2023-05-18T05:09:38.313Z,853.37
2023-05-18T05:10:38.310Z,853.34
2023-05-18T05:11:38.304Z,853.39
2023-05-18T05:12:38.289Z,853.37
2023-05-18T05:13:38.269Z,853.36
2023-05-18T05:14:38.286Z,853.34
2023-05-18T05:15:38.285Z,853.38
2023-05-18T05:16:38.231Z,853.37
2023-05-18T05:17:38.283Z,853.40
2023-05-18T05:18:38.254Z,853.42
2023-05-18T05:19:38.220Z,853.43
2023-05-18T05:20:38.199Z,853.37
2023-05-18T05:21:38.201Z,853.39
2023-05-18T05:22:38.246Z,853.40
2023-05-18T05:23:38.172Z,853.41
2023-05-18T05:24:38.152Z,853.37
2023-05-18T05:25:38.153Z,853.41
2023-05-18T05:26:38.132Z,853.40
2023-05-18T05:27:38.121Z,853.38
2023-05-18T05:28:38.103Z,853.41
2023-05-18T05:29:38.104Z,853.40
2023-05-18T05:30:38.097Z,853.41
2023-05-18T05:31:38.183Z,853.36
2023-05-18T05:32:38.158Z,853.38
2023-05-18T05:33:38.050Z,853.36
2023-05-18T05:34:38.061Z,853.33
2023-05-18T05:35:38.363Z,853.27
2023-05-18T05:36:38.013Z,853.32
2023-05-18T05:37:38.040Z,853.32
2023-05-18T05:38:38.011Z,853.27
2023-05-18T05:39:38.015Z,853.33
2023-05-18T05:40:37.981Z,853.31
2023-05-18T05:41:37.962Z,853.28
2023-05-18T05:42:37.950Z,853.28
2023-05-18T05:43:37.963Z,853.35
2023-05-18T05:44:37.926Z,853.29
2023-05-18T05:45:37.941Z,853.26
2023-05-18T05:46:37.988Z,853.27
2023-05-18T05:47:37.970Z,853.26
2023-05-18T05:48:37.887Z,853.23
2023-05-18T05:49:37.891Z,853.30
2023-05-18T05:50:37.874Z,853.26
2023-05-18T05:51:37.861Z,853.27
2023-05-18T05:52:37.877Z,853.29
2023-05-18T05:53:37.854Z,853.24
2023-05-18T05:54:37.822Z,853.22
2023-05-18T05:55:37.831Z,853.23
2023-05-18T05:56:37.800Z,853.21
2023-05-18T05:57:37.791Z,853.18
2023-05-18T05:58:37.800Z,853.26
2023-05-18T05:59:37.779Z,853.23
2023-05-18T06:00:37.757Z,853.28
2023-05-18T06:01:37.871Z,853.23
2023-05-18T06:02:37.933Z,853.21
2023-05-18T06:03:37.763Z,853.22
2023-05-18T06:04:37.790Z,853.20
2023-05-18T06:05:37.722Z,853.25
2023-05-18T06:06:37.711Z,853.27
2023-05-18T06:07:37.723Z,853.28
2023-05-18T06:08:37.692Z,853.30
2023-05-18T06:09:37.709Z,853.31
2023-05-18T06:10:37.677Z,853.35
2023-05-18T06:11:37.645Z,853.40
2023-05-18T06:12:37.628Z,853.35
2023-05-18T06:13:37.643Z,853.36
2023-05-18T06:14:37.612Z,853.35
2023-05-18T06:15:37.614Z,853.37
2023-05-18T06:16:37.633Z,853.45
2023-05-18T06:17:37.632Z,853.42
2023-05-18T06:18:37.593Z,853.43
2023-05-18T06:19:37.575Z,853.40
2023-05-18T06:20:37.554Z,853.40
2023-05-18T06:21:37.550Z,853.39
2023-05-18T06:22:37.527Z,853.42
2023-05-18T06:23:39.516Z,853.43
2023-05-18T06:24:37.507Z,853.46
2023-05-18T06:25:37.518Z,853.49
2023-05-18T06:26:37.498Z,853.55
2023-05-18T06:27:37.473Z,853.52
2023-05-18T06:28:37.460Z,853.51
2023-05-18T06:29:37.465Z,853.54
2023-05-18T06:30:37.454Z,853.51
2023-05-18T06:31:37.464Z,853.55
2023-05-18T06:32:37.586Z,853.50
2023-05-18T06:33:37.410Z,853.52
2023-05-18T06:34:37.400Z,853.53
2023-05-18T06:35:37.388Z,853.57
2023-05-18T06:36:37.375Z,853.55
2023-05-18T06:37:37.423Z,853.56
2023-05-18T06:38:37.358Z,853.53
2023-05-18T06:39:37.348Z,853.54
2023-05-18T06:40:37.343Z,853.51
2023-05-18T06:41:37.347Z,853.53
2023-05-18T06:42:37.311Z,853.53
2023-05-18T06:43:37.331Z,853.55
2023-05-18T06:44:37.290Z,853.54
2023-05-18T06:45:37.743Z,853.52
2023-05-18T06:46:37.355Z,853.57
2023-05-18T06:47:37.287Z,853.57
2023-05-18T06:48:37.266Z,853.58
2023-05-18T06:49:37.261Z,853.54
2023-05-18T06:50:37.240Z,853.55
2023-05-18T06:51:37.217Z,853.56
2023-05-18T06:52:37.204Z,853.55
2023-05-18T06:53:37.205Z,853.60
2023-05-18T06:54:37.192Z,853.53
2023-05-18T06:55:37.201Z,853.52
2023-05-18T06:56:37.168Z,853.60
2023-05-18T06:57:37.177Z,853.59
2023-05-18T06:58:37.158Z,853.53
2023-05-18T06:59:37.131Z,853.53
2023-05-18T07:00:37.116Z,853.53
2023-05-18T07:01:37.159Z,853.54
2023-05-18T07:02:37.131Z,853.52
2023-05-18T07:03:37.153Z,853.52
2023-05-18T07:04:37.113Z,853.53
2023-05-18T07:05:39.374Z,853.55
2023-05-18T07:06:37.054Z,853.53
2023-05-18T07:07:37.087Z,853.52
2023-05-18T07:08:37.049Z,853.53
2023-05-18T07:09:37.041Z,853.49
2023-05-18T07:10:37.035Z,853.51
2023-05-18T07:11:37.001Z,853.46
2023-05-18T07:12:36.987Z,853.46
2023-05-18T07:13:37.069Z,853.40
2023-05-18T07:14:36.961Z,853.40
2023-05-18T07:15:36.978Z,853.41
2023-05-18T07:16:37.017Z,853.38
2023-05-18T07:17:36.983Z,853.43
2023-05-18T07:18:36.960Z,853.42
2023-05-18T07:19:36.944Z,853.36
2023-05-18T07:20:36.911Z,853.39
2023-05-18T07:21:36.900Z,853.42
2023-05-18T07:22:36.893Z,853.38
2023-05-18T07:23:36.871Z,853.39
2023-05-18T07:24:36.867Z,853.36
2023-05-18T07:25:36.865Z,853.37
2023-05-18T07:26:36.862Z,853.34
2023-05-18T07:27:36.824Z,853.35
2023-05-18T07:28:36.816Z,853.34
2023-05-18T07:29:36.829Z,853.35
2023-05-18T07:30:36.793Z,853.33
2023-05-18T07:31:36.818Z,853.37
2023-05-18T07:32:36.843Z,853.39
2023-05-18T07:33:38.513Z,853.34
2023-05-18T07:34:36.749Z,853.31
2023-05-18T07:35:36.744Z,853.34
2023-05-18T07:36:36.732Z,853.37
2023-05-18T07:37:36.741Z,853.37
2023-05-18T07:38:36.706Z,853.33
2023-05-18T07:39:36.700Z,853.33
2023-05-18T07:40:36.680Z,853.33
2023-05-18T07:41:36.676Z,853.32
2023-05-18T07:42:36.680Z,853.36
2023-05-18T07:43:36.678Z,853.30
2023-05-18T07:44:36.638Z,853.35
2023-05-18T07:45:36.699Z,853.33
2023-05-18T07:46:36.640Z,853.29
2023-05-18T07:47:36.655Z,853.33
2023-05-18T07:48:37.528Z,853.33
2023-05-18T07:49:36.613Z,853.30
2023-05-18T07:50:36.574Z,853.31
2023-05-18T07:51:36.567Z,853.35
2023-05-18T07:52:36.553Z,853.33
2023-05-18T07:53:36.542Z,853.30
2023-05-18T07:54:36.536Z,853.25
2023-05-18T07:55:36.565Z,853.22
2023-05-18T07:56:36.514Z,853.22
2023-05-18T07:57:36.519Z,853.22
2023-05-18T07:58:36.657Z,853.21
2023-05-18T07:59:36.476Z,853.18
2023-05-18T08:00:36.475Z,853.17
2023-05-18T08:01:36.499Z,853.22
2023-05-18T08:02:36.535Z,853.15
2023-05-18T08:03:36.491Z,853.14
2023-05-18T08:04:36.416Z,853.15
2023-05-18T08:05:36.418Z,853.11
2023-05-18T08:06:36.413Z,853.07
2023-05-18T08:07:36.416Z,853.09
2023-05-18T08:08:36.378Z,853.05
2023-05-18T08:09:36.393Z,853.07
2023-05-18T08:10:36.350Z,853.03
2023-05-18T08:11:36.342Z,853.07
2023-05-18T08:12:36.327Z,853.02
2023-05-18T08:13:36.330Z,853.06
2023-05-18T08:14:36.321Z,853.03
2023-05-18T08:15:36.309Z,852.98
2023-05-18T08:16:36.324Z,852.99
2023-05-18T08:17:36.340Z,852.99
2023-05-18T08:18:36.403Z,852.99
2023-05-18T08:19:36.265Z,852.96
2023-05-18T08:20:36.248Z,852.97
2023-05-18T08:21:36.235Z,852.98
2023-05-18T08:22:36.216Z,852.96
2023-05-18T08:23:36.208Z,853.02
2023-05-18T08:24:36.208Z,853.00
2023-05-18T08:25:36.205Z,853.01
2023-05-18T08:26:36.183Z,853.00
2023-05-18T08:27:36.170Z,852.96
2023-05-18T08:28:36.155Z,852.98
2023-05-18T08:29:36.143Z,852.99
2023-05-18T08:30:36.137Z,852.96
2023-05-18T08:31:36.197Z,853.01
2023-05-18T08:32:36.174Z,852.94
2023-05-18T08:33:36.129Z,852.94
2023-05-18T08:34:36.126Z,852.94
2023-05-18T08:35:36.077Z,852.92
2023-05-18T08:36:36.102Z,852.96
2023-05-18T08:37:36.105Z,852.98
2023-05-18T08:38:36.047Z,852.97
2023-05-18T08:39:36.037Z,853.01
2023-05-18T08:40:36.051Z,852.96
2023-05-18T08:41:38.654Z,852.94
2023-05-18T08:42:48.670Z,852.92
2023-05-18T08:43:37.016Z,852.85
2023-05-18T08:44:35.985Z,852.84
2023-05-18T08:45:35.967Z,852.87
2023-05-18T08:46:35.987Z,852.89
2023-05-18T08:47:35.995Z,852.89
2023-05-18T08:48:36.014Z,852.90
2023-05-18T08:49:35.959Z,852.93
2023-05-18T08:50:35.915Z,852.92
2023-05-18T08:51:35.903Z,852.93
2023-05-18T08:52:35.910Z,852.91
2023-05-18T08:53:35.885Z,852.87
2023-05-18T08:54:35.870Z,852.89
2023-05-18T08:55:35.876Z,852.90
2023-05-18T08:56:35.853Z,852.92
2023-05-18T08:57:35.849Z,852.95
2023-05-18T08:58:35.890Z,852.89
2023-05-18T08:59:35.818Z,852.92
2023-05-18T09:00:35.936Z,852.93
2023-05-18T09:01:35.861Z,852.88
2023-05-18T09:02:35.819Z,852.91
2023-05-18T09:03:35.774Z,852.89
2023-05-18T09:04:35.863Z,852.93
2023-05-18T09:05:36.073Z,852.89
2023-05-18T09:06:35.761Z,852.88
2023-05-18T09:07:35.739Z,852.85
2023-05-18T09:08:35.756Z,852.91
2023-05-18T09:09:35.709Z,852.92
2023-05-18T09:10:35.707Z,852.93
2023-05-18T09:11:35.724Z,852.91
2023-05-18T09:12:35.687Z,852.92
2023-05-18T09:13:35.675Z,852.94
2023-05-18T09:14:35.665Z,852.95
2023-05-18T09:15:35.639Z,852.93
2023-05-18T09:16:35.748Z,852.99
2023-05-18T09:17:35.666Z,852.97
2023-05-18T09:18:35.659Z,852.94
2023-05-18T09:19:35.637Z,852.95
2023-05-18T09:20:35.595Z,852.97
2023-05-18T09:21:35.608Z,852.93
2023-05-18T09:22:35.567Z,852.91
2023-05-18T09:23:35.554Z,852.96
2023-05-18T09:24:35.549Z,852.93
2023-05-18T09:25:35.575Z,852.94
2023-05-18T09:26:35.531Z,852.98
2023-05-18T09:27:35.511Z,852.98
2023-05-18T09:28:35.508Z,852.97
2023-05-18T09:29:35.488Z,852.95
2023-05-18T09:30:35.481Z,852.96
2023-05-18T09:31:35.507Z,852.94
2023-05-18T09:32:35.513Z,852.93
2023-05-18T09:33:35.594Z,852.95
2023-05-18T09:34:35.438Z,852.92
2023-05-18T09:35:37.107Z,852.93
2023-05-18T09:36:35.417Z,852.97
2023-05-18T09:37:35.439Z,852.95
2023-05-18T09:38:35.403Z,852.93
2023-05-18T09:39:35.380Z,852.93
2023-05-18T09:40:35.382Z,852.85
2023-05-18T09:41:35.359Z,852.82
2023-05-18T09:42:35.349Z,852.83
2023-05-18T09:43:35.362Z,852.78
2023-05-18T09:44:35.349Z,852.77
2023-05-18T09:45:35.315Z,852.76
2023-05-18T09:46:35.348Z,852.80
2023-05-18T09:47:35.310Z,852.76
2023-05-18T09:48:35.290Z,852.78
2023-05-18T09:49:35.286Z,852.74
2023-05-18T09:50:35.273Z,852.81
2023-05-18T09:51:35.247Z,852.75
2023-05-18T09:52:35.255Z,852.76
2023-05-18T09:53:35.255Z,852.77
2023-05-18T09:54:35.228Z,852.81
2023-05-18T09:55:35.220Z,852.79
2023-05-18T09:56:35.205Z,852.77
2023-05-18T09:57:35.196Z,852.81
2023-05-18T09:58:35.186Z,852.81
2023-05-18T09:59:35.163Z,852.77
2023-05-18T10:00:35.208Z,852.75
2023-05-18T10:01:35.239Z,852.75
2023-05-18T10:02:35.154Z,852.74
2023-05-18T10:03:35.133Z,852.76
2023-05-18T10:04:35.133Z,852.74
2023-05-18T10:05:36.336Z,852.77
2023-05-18T10:06:35.111Z,852.71
2023-05-18T10:07:35.084Z,852.78
2023-05-18T10:08:35.072Z,852.74
2023-05-18T10:09:35.076Z,852.79
2023-05-18T10:10:35.072Z,852.76
2023-05-18T10:11:35.036Z,852.77
2023-05-18T10:12:35.042Z,852.77
2023-05-18T10:13:35.035Z,852.80
2023-05-18T10:14:35.001Z,852.82
2023-05-18T10:15:34.986Z,852.74
2023-05-18T10:16:35.011Z,852.79
2023-05-18T10:17:35.082Z,852.74
2023-05-18T10:18:35.021Z,852.79
2023-05-18T10:19:34.943Z,852.72
2023-05-18T10:20:34.941Z,852.77
2023-05-18T10:21:34.924Z,852.77
2023-05-18T10:22:34.917Z,852.73
2023-05-18T10:23:34.914Z,852.76
2023-05-18T10:24:34.940Z,852.75
2023-05-18T10:25:34.900Z,852.73
2023-05-18T10:26:34.890Z,852.75
2023-05-18T10:27:34.869Z,852.71
2023-05-18T10:28:34.854Z,852.68
2023-05-18T10:29:34.895Z,852.73
2023-05-18T10:30:34.887Z,852.68
2023-05-18T10:31:34.983Z,852.74
2023-05-18T10:32:34.850Z,852.73
2023-05-18T10:33:34.855Z,852.76
2023-05-18T10:34:34.791Z,852.74
2023-05-18T10:35:34.781Z,852.74
2023-05-18T10:36:34.795Z,852.76
2023-05-18T10:37:34.748Z,852.79
2023-05-18T10:38:34.742Z,852.80
2023-05-18T10:39:34.742Z,852.78
2023-05-18T10:40:34.721Z,852.78
2023-05-18T10:41:34.771Z,852.85
2023-05-18T10:42:34.712Z,852.84
2023-05-18T10:43:34.685Z,852.83
2023-05-18T10:44:34.804Z,852.76
2023-05-18T10:45:34.694Z,852.78
2023-05-18T10:46:34.726Z,852.82
2023-05-18T10:47:34.848Z,852.80
2023-05-18T10:48:34.669Z,852.71
2023-05-18T10:49:34.623Z,852.74
2023-05-18T10:50:34.617Z,852.72
2023-05-18T10:51:34.613Z,852.70
2023-05-18T10:52:34.589Z,852.71
2023-05-18T10:53:34.593Z,852.68
2023-05-18T10:54:34.585Z,852.66
2023-05-18T10:55:34.581Z,852.67
2023-05-18T10:56:34.549Z,852.66
2023-05-18T10:57:34.561Z,852.68
2023-05-18T10:58:34.527Z,852.60
2023-05-18T10:59:34.514Z,852.63
2023-05-18T11:00:34.516Z,852.68
2023-05-18T11:01:34.580Z,852.67
2023-05-18T11:02:34.514Z,852.63
2023-05-18T11:03:34.473Z,852.64
2023-05-18T11:04:34.504Z,852.68
2023-05-18T11:05:34.451Z,852.71
2023-05-18T11:06:34.449Z,852.59
2023-05-18T11:07:34.441Z,852.69
2023-05-18T11:08:34.431Z,852.65
2023-05-18T11:09:34.410Z,852.66
2023-05-18T11:10:34.395Z,852.68
2023-05-18T11:11:34.384Z,852.67
2023-05-18T11:12:34.396Z,852.67
2023-05-18T11:13:34.419Z,852.67
2023-05-18T11:14:34.367Z,852.64
2023-05-18T11:15:34.345Z,852.61
2023-05-18T11:16:34.356Z,852.62
2023-05-18T11:17:34.473Z,852.59
2023-05-18T11:18:34.332Z,852.61
2023-05-18T11:19:34.299Z,852.60
2023-05-18T11:20:34.286Z,852.60
2023-05-18T11:21:34.279Z,852.54
2023-05-18T11:22:34.268Z,852.58
2023-05-18T11:23:34.268Z,852.58
2023-05-18T11:24:34.255Z,852.55
2023-05-18T11:25:34.237Z,852.56
2023-05-18T11:26:34.222Z,852.60
2023-05-18T11:27:34.300Z,852.58
2023-05-18T11:28:34.201Z,852.55
2023-05-18T11:29:34.225Z,852.54
2023-05-18T11:30:34.483Z,852.52
2023-05-18T11:31:34.197Z,852.50
2023-05-18T11:32:34.282Z,852.47
2023-05-18T11:33:34.206Z,852.56
2023-05-18T11:34:34.778Z,852.49
2023-05-18T11:35:34.129Z,852.52
2023-05-18T11:36:34.158Z,852.50
2023-05-18T11:37:34.164Z,852.48
2023-05-18T11:38:34.101Z,852.50
2023-05-18T11:39:34.857Z,852.48
2023-05-18T11:40:34.074Z,852.51
2023-05-18T11:41:34.119Z,852.46
2023-05-18T11:42:34.093Z,852.48
2023-05-18T11:43:34.042Z,852.49
2023-05-18T11:44:34.034Z,852.48
2023-05-18T11:45:34.050Z,852.54
2023-05-18T11:46:34.051Z,852.52
2023-05-18T11:47:34.098Z,852.57
2023-05-18T11:48:34.098Z,852.56
2023-05-18T11:49:33.995Z,852.62
2023-05-18T11:50:34.210Z,852.56
2023-05-18T11:51:33.963Z,852.58
2023-05-18T11:52:33.941Z,852.61
2023-05-18T11:53:33.948Z,852.67
2023-05-18T11:54:33.940Z,852.62
2023-05-18T11:55:33.920Z,852.64
2023-05-18T11:56:33.903Z,852.63
2023-05-18T11:57:33.933Z,852.66
2023-05-18T11:58:33.874Z,852.63
2023-05-18T11:59:33.892Z,852.62
2023-05-18T12:00:33.865Z,852.65
2023-05-18T12:01:33.866Z,852.65
2023-05-18T12:02:33.979Z,852.62
2023-05-18T12:03:33.919Z,852.59
2023-05-18T12:04:33.887Z,852.65
2023-05-18T12:05:33.798Z,852.63
2023-05-18T12:06:33.814Z,852.60
2023-05-18T12:07:33.843Z,852.61
2023-05-18T12:08:33.778Z,852.67
2023-05-18T12:09:33.754Z,852.59
2023-05-18T12:10:33.913Z,852.64
2023-05-18T12:11:33.737Z,852.63
2023-05-18T12:12:33.742Z,852.62
2023-05-18T12:13:33.713Z,852.63
2023-05-18T12:14:33.698Z,852.63
2023-05-18T12:15:33.687Z,852.63
2023-05-18T12:16:33.735Z,852.65
2023-05-18T12:17:33.759Z,852.64
2023-05-18T12:18:33.683Z,852.64
2023-05-18T12:19:33.653Z,852.63
2023-05-18T12:20:33.790Z,852.66
2023-05-18T12:21:33.622Z,852.66
2023-05-18T12:22:33.611Z,852.63
2023-05-18T12:23:33.619Z,852.63
2023-05-18T12:24:33.625Z,852.62
2023-05-18T12:25:33.848Z,852.67
2023-05-18T12:26:33.568Z,852.70
2023-05-18T12:27:33.559Z,852.66
2023-05-18T12:28:33.546Z,852.66